sensor_id;sensor_type;location;lat;lon;timestamp;temperature;humidity
24482;DHT22;17862;50.846;5.716;2023-03-14T09:58:37;8.10;1.00
24482;DHT22;17862;50.846;5.716;2023-03-14T10:01:07;8.10;1.00
24482;DHT22;17862;50.846;5.716;2023-03-14T10:03:37;8.20;1.00
24482;DHT22;17862;50.846;5.716;2023-03-14T10:06:08;8.10;1.00
24482;DHT22;17862;50.846;5.716;2023-03-14T10:08:38;8.20;99.90
24482;DHT22;17862;50.846;5.716;2023-03-14T10:11:05;8.30;1.00
24482;DHT22;17862;50.846;5.716;2023-03-14T10:13:33;8.30;1.00
24482;DHT22;17862;50.846;5.716;2023-03-14T10:16:02;8.30;1.00
24482;DHT22;17862;50.846;5.716;2023-03-14T10:18:29;8.20;1.00
24482;DHT22;17862;50.846;5.716;2023-03-14T10:21:03;8.00;26.40
24482;DHT22;17862;50.846;5.716;2023-03-14T10:23:32;7.90;1.00
24482;DHT22;17862;50.846;5.716;2023-03-14T10:26:07;7.80;1.00
24482;DHT22;17862;50.846;5.716;2023-03-14T10:28:37;7.80;1.00
24482;DHT22;17862;50.846;5.716;2023-03-14T10:31:06;7.60;1.00
24482;DHT22;17862;50.846;5.716;2023-03-14T10:33:33;7.20;92.90
24482;DHT22;17862;50.846;5.716;2023-03-14T10:36:01;7.10;1.00
24482;DHT22;17862;50.846;5.716;2023-03-14T10:38:29;7.00;1.00
24482;DHT22;17862;50.846;5.716;2023-03-14T10:40:56;7.10;1.00
24482;DHT22;17862;50.846;5.716;2023-03-14T10:43:25;7.40;1.00
24482;DHT22;17862;50.846;5.716;2023-03-14T10:45:54;7.50;99.90
24482;DHT22;17862;50.846;5.716;2023-03-14T10:48:29;7.60;1.00
24482;DHT22;17862;50.846;5.716;2023-03-14T10:50:57;7.80;99.90
24482;DHT22;17862;50.846;5.716;2023-03-14T10:53:24;8.40;99.90
24482;DHT22;17862;50.846;5.716;2023-03-14T10:55:51;8.50;99.90
24482;DHT22;17862;50.846;5.716;2023-03-14T10:58:20;8.50;1.00
24482;DHT22;17862;50.846;5.716;2023-03-14T11:00:47;9.00;1.00
24482;DHT22;17862;50.846;5.716;2023-03-14T11:03:16;8.90;1.00
24482;DHT22;17862;50.846;5.716;2023-03-14T11:05:49;8.80;99.90
24482;DHT22;17862;50.846;5.716;2023-03-14T11:08:19;8.60;99.90
24482;DHT22;17862;50.846;5.716;2023-03-14T11:10:48;8.40;1.00
24482;DHT22;17862;50.846;5.716;2023-03-14T11:13:19;8.30;1.00
24482;DHT22;17862;50.846;5.716;2023-03-14T11:15:52;8.10;1.00
24482;DHT22;17862;50.846;5.716;2023-03-14T11:18:32;8.00;1.00
24482;DHT22;17862;50.846;5.716;2023-03-14T11:21:02;7.80;1.00
24482;DHT22;17862;50.846;5.716;2023-03-14T11:23:38;7.70;1.00
24482;DHT22;17862;50.846;5.716;2023-03-14T11:26:09;7.50;99.90
24482;DHT22;17862;50.846;5.716;2023-03-14T11:28:41;7.50;1.00
24482;DHT22;17862;50.846;5.716;2023-03-14T11:31:14;7.50;1.00
24482;DHT22;17862;50.846;5.716;2023-03-14T11:33:46;7.40;1.00
24482;DHT22;17862;50.846;5.716;2023-03-14T11:36:17;7.20;99.90
24482;DHT22;17862;50.846;5.716;2023-03-14T11:38:47;7.00;99.90
24482;DHT22;17862;50.846;5.716;2023-03-14T11:41:15;6.90;99.90
24482;DHT22;17862;50.846;5.716;2023-03-14T11:43:42;7.00;99.90
24482;DHT22;17862;50.846;5.716;2023-03-14T11:46:15;7.10;99.90
24482;DHT22;17862;50.846;5.716;2023-03-14T11:48:44;7.50;1.00
24482;DHT22;17862;50.846;5.716;2023-03-14T11:51:17;7.80;99.90
24482;DHT22;17862;50.846;5.716;2023-03-14T11:53:58;7.80;1.00
24482;DHT22;17862;50.846;5.716;2023-03-14T11:56:29;7.70;1.00
24482;DHT22;17862;50.846;5.716;2023-03-14T11:58:58;7.60;1.00
24482;DHT22;17862;50.846;5.716;2023-03-14T12:01:28;7.30;1.00
24482;DHT22;17862;50.846;5.716;2023-03-14T12:04:00;7.20;1.00
24482;DHT22;17862;50.846;5.716;2023-03-14T12:06:30;7.00;1.00
24482;DHT22;17862;50.846;5.716;2023-03-14T12:09:00;6.70;99.90
24482;DHT22;17862;50.846;5.716;2023-03-14T12:11:33;6.60;1.00
24482;DHT22;17862;50.846;5.716;2023-03-14T12:14:00;6.40;1.00
24482;DHT22;17862;50.846;5.716;2023-03-14T12:16:34;5.90;1.00
24482;DHT22;17862;50.846;5.716;2023-03-14T12:19:21;5.80;1.00
24482;DHT22;17862;50.846;5.716;2023-03-14T12:21:53;5.70;1.00
24482;DHT22;17862;50.846;5.716;2023-03-14T12:24:22;5.70;1.00
24482;DHT22;17862;50.846;5.716;2023-03-14T12:26:52;5.70;1.00
24482;DHT22;17862;50.846;5.716;2023-03-14T12:29:19;5.80;1.00
24482;DHT22;17862;50.846;5.716;2023-03-14T12:31:46;6.00;1.00
24482;DHT22;17862;50.846;5.716;2023-03-14T12:34:26;6.10;1.00
24482;DHT22;17862;50.846;5.716;2023-03-14T12:39:43;6.40;99.90
24482;DHT22;17862;50.846;5.716;2023-03-14T12:42:12;6.60;1.00
24482;DHT22;17862;50.846;5.716;2023-03-14T12:44:43;6.80;99.90
24482;DHT22;17862;50.846;5.716;2023-03-14T12:50:13;6.80;99.90
24482;DHT22;17862;50.846;5.716;2023-03-14T12:52:42;6.60;99.90
24482;DHT22;17862;50.846;5.716;2023-03-14T12:55:15;6.50;1.00
24482;DHT22;17862;50.846;5.716;2023-03-14T12:57:47;6.40;1.00
24482;DHT22;17862;50.846;5.716;2023-03-14T13:00:20;6.40;1.00
24482;DHT22;17862;50.846;5.716;2023-03-14T13:02:48;6.30;1.00
24482;DHT22;17862;50.846;5.716;2023-03-14T13:05:16;6.40;1.00
24482;DHT22;17862;50.846;5.716;2023-03-14T13:08:04;6.30;1.00
24482;DHT22;17862;50.846;5.716;2023-03-14T13:10:39;6.10;1.00
24482;DHT22;17862;50.846;5.716;2023-03-14T13:13:14;6.10;1.00
24482;DHT22;17862;50.846;5.716;2023-03-14T13:15:45;6.00;1.00
24482;DHT22;17862;50.846;5.716;2023-03-14T13:18:13;6.00;1.00
24482;DHT22;17862;50.846;5.716;2023-03-14T13:20:41;5.80;1.00
24482;DHT22;17862;50.846;5.716;2023-03-14T13:23:19;5.60;1.00
24482;DHT22;17862;50.846;5.716;2023-03-14T13:25:47;5.50;1.00
24482;DHT22;17862;50.846;5.716;2023-03-14T13:28:14;5.40;1.00
24482;DHT22;17862;50.846;5.716;2023-03-14T13:30:42;5.20;1.00
24482;DHT22;17862;50.846;5.716;2023-03-14T13:33:14;5.00;1.00
24482;DHT22;17862;50.846;5.716;2023-03-14T13:35:41;4.90;1.00
24482;DHT22;17862;50.846;5.716;2023-03-14T13:38:16;4.90;1.00
24482;DHT22;17862;50.846;5.716;2023-03-14T13:40:43;5.00;1.00
24482;DHT22;17862;50.846;5.716;2023-03-14T13:43:13;5.00;1.00
24482;DHT22;17862;50.846;5.716;2023-03-14T13:45:41;5.00;1.00
24482;DHT22;17862;50.846;5.716;2023-03-14T13:48:09;5.00;1.00
24482;DHT22;17862;50.846;5.716;2023-03-14T13:50:38;5.00;1.00
24482;DHT22;17862;50.846;5.716;2023-03-14T13:53:04;5.20;1.00
24482;DHT22;17862;50.846;5.716;2023-03-14T13:55:32;5.40;1.00
24482;DHT22;17862;50.846;5.716;2023-03-14T13:58:00;5.50;1.00
24482;DHT22;17862;50.846;5.716;2023-03-14T14:00:28;5.60;1.00
24482;DHT22;17862;50.846;5.716;2023-03-14T14:02:55;5.70;1.00
24482;DHT22;17862;50.846;5.716;2023-03-14T14:05:23;5.80;1.00
24482;DHT22;17862;50.846;5.716;2023-03-14T14:07:52;5.80;1.00
24482;DHT22;17862;50.846;5.716;2023-03-14T14:10:19;5.80;1.00
24482;DHT22;17862;50.846;5.716;2023-03-14T14:12:46;5.90;1.00
24482;DHT22;17862;50.846;5.716;2023-03-14T14:15:17;6.10;1.00
24482;DHT22;17862;50.846;5.716;2023-03-14T14:17:47;6.10;1.00
24482;DHT22;17862;50.846;5.716;2023-03-14T14:20:20;6.30;1.00
24482;DHT22;17862;50.846;5.716;2023-03-14T14:22:48;6.40;1.00
24482;DHT22;17862;50.846;5.716;2023-03-14T14:25:15;6.40;1.00
24482;DHT22;17862;50.846;5.716;2023-03-14T14:27:43;6.30;1.00
24482;DHT22;17862;50.846;5.716;2023-03-14T14:30:24;6.30;1.00
24482;DHT22;17862;50.846;5.716;2023-03-14T14:33:06;6.30;1.00
24482;DHT22;17862;50.846;5.716;2023-03-14T14:35:34;6.20;1.00
24482;DHT22;17862;50.846;5.716;2023-03-14T14:38:02;6.10;1.00
24482;DHT22;17862;50.846;5.716;2023-03-14T14:40:43;6.00;1.00
24482;DHT22;17862;50.846;5.716;2023-03-14T14:43:11;6.00;1.00
24482;DHT22;17862;50.846;5.716;2023-03-14T14:45:42;5.90;1.00
24482;DHT22;17862;50.846;5.716;2023-03-14T14:48:10;5.90;1.00
24482;DHT22;17862;50.846;5.716;2023-03-14T14:50:38;5.90;1.00
24482;DHT22;17862;50.846;5.716;2023-03-14T14:53:18;6.00;1.00
24482;DHT22;17862;50.846;5.716;2023-03-14T14:55:49;6.00;99.90
24482;DHT22;17862;50.846;5.716;2023-03-14T14:58:18;6.10;1.00
24482;DHT22;17862;50.846;5.716;2023-03-14T15:00:49;6.10;99.90
24482;DHT22;17862;50.846;5.716;2023-03-14T15:03:19;6.00;99.90
24482;DHT22;17862;50.846;5.716;2023-03-14T15:05:46;6.10;1.00
24482;DHT22;17862;50.846;5.716;2023-03-14T15:08:13;6.10;99.90
24482;DHT22;17862;50.846;5.716;2023-03-14T15:10:40;6.00;99.90
24482;DHT22;17862;50.846;5.716;2023-03-14T15:13:07;5.90;99.90
24482;DHT22;17862;50.846;5.716;2023-03-14T15:15:34;5.90;99.90
24482;DHT22;17862;50.846;5.716;2023-03-14T15:18:01;6.00;99.90
24482;DHT22;17862;50.846;5.716;2023-03-14T15:20:29;6.10;99.90
24482;DHT22;17862;50.846;5.716;2023-03-14T15:22:56;6.00;1.00
